sensor_id;sensor_type;location;lat;lon;timestamp;temperature;humidity
43808;DHT22;29438;50.664;10.098;2022-08-23T00:01:59;15.60;74.10
43808;DHT22;29438;50.664;10.098;2022-08-23T00:04:30;15.50;74.30
43808;DHT22;29438;50.664;10.098;2022-08-23T00:06:56;15.50;74.80
43808;DHT22;29438;50.664;10.098;2022-08-23T00:09:23;15.40;75.40
43808;DHT22;29438;50.664;10.098;2022-08-23T00:11:54;15.30;75.60
43808;DHT22;29438;50.664;10.098;2022-08-23T00:14:29;15.30;75.80
43808;DHT22;29438;50.664;10.098;2022-08-23T00:16:56;15.30;76.10
43808;DHT22;29438;50.664;10.098;2022-08-23T00:19:22;15.30;76.00
43808;DHT22;29438;50.664;10.098;2022-08-23T00:21:50;15.30;75.90
43808;DHT22;29438;50.664;10.098;2022-08-23T00:24:17;15.30;76.10
43808;DHT22;29438;50.664;10.098;2022-08-23T00:26:52;15.20;76.10
43808;DHT22;29438;50.664;10.098;2022-08-23T00:29:18;15.20;76.30
43808;DHT22;29438;50.664;10.098;2022-08-23T00:31:45;15.20;76.40
43808;DHT22;29438;50.664;10.098;2022-08-23T00:34:11;15.10;76.50
43808;DHT22;29438;50.664;10.098;2022-08-23T00:36:37;15.10;76.70
43808;DHT22;29438;50.664;10.098;2022-08-23T00:39:03;15.00;77.00
43808;DHT22;29438;50.664;10.098;2022-08-23T00:41:29;14.90;77.40
43808;DHT22;29438;50.664;10.098;2022-08-23T00:43:54;14.80;77.50
43808;DHT22;29438;50.664;10.098;2022-08-23T00:46:44;14.70;77.80
43808;DHT22;29438;50.664;10.098;2022-08-23T00:49:30;14.50;78.10
43808;DHT22;29438;50.664;10.098;2022-08-23T00:52:07;14.40;78.40
43808;DHT22;29438;50.664;10.098;2022-08-23T00:54:35;14.30;78.80
43808;DHT22;29438;50.664;10.098;2022-08-23T00:57:05;14.30;79.00
43808;DHT22;29438;50.664;10.098;2022-08-23T00:59:32;14.20;79.30
43808;DHT22;29438;50.664;10.098;2022-08-23T01:01:59;14.20;79.60
43808;DHT22;29438;50.664;10.098;2022-08-23T01:04:29;14.20;79.80
43808;DHT22;29438;50.664;10.098;2022-08-23T01:09:27;14.10;80.10
43808;DHT22;29438;50.664;10.098;2022-08-23T01:12:13;14.00;80.20
43808;DHT22;29438;50.664;10.098;2022-08-23T01:14:48;14.00;80.40
43808;DHT22;29438;50.664;10.098;2022-08-23T01:17:20;14.00;80.50
43808;DHT22;29438;50.664;10.098;2022-08-23T01:19:53;14.00;80.60
43808;DHT22;29438;50.664;10.098;2022-08-23T01:22:39;14.00;80.50
43808;DHT22;29438;50.664;10.098;2022-08-23T01:25:09;14.00;80.50
43808;DHT22;29438;50.664;10.098;2022-08-23T01:27:36;14.10;80.40
43808;DHT22;29438;50.664;10.098;2022-08-23T01:30:04;14.10;80.50
43808;DHT22;29438;50.664;10.098;2022-08-23T01:32:31;14.10;80.40
43808;DHT22;29438;50.664;10.098;2022-08-23T01:34:57;14.20;80.20
43808;DHT22;29438;50.664;10.098;2022-08-23T01:37:23;14.10;80.20
43808;DHT22;29438;50.664;10.098;2022-08-23T01:39:48;14.10;80.30
43808;DHT22;29438;50.664;10.098;2022-08-23T01:42:14;14.20;80.20
43808;DHT22;29438;50.664;10.098;2022-08-23T01:44:39;14.20;80.00
43808;DHT22;29438;50.664;10.098;2022-08-23T01:47:05;14.20;80.20
43808;DHT22;29438;50.664;10.098;2022-08-23T01:49:32;14.20;80.10
43808;DHT22;29438;50.664;10.098;2022-08-23T01:51:58;14.20;80.10
43808;DHT22;29438;50.664;10.098;2022-08-23T01:54:24;14.20;80.30
43808;DHT22;29438;50.664;10.098;2022-08-23T01:56:50;14.20;80.50
43808;DHT22;29438;50.664;10.098;2022-08-23T01:59:15;14.10;80.50
43808;DHT22;29438;50.664;10.098;2022-08-23T02:01:41;14.10;80.70
43808;DHT22;29438;50.664;10.098;2022-08-23T02:04:06;14.00;81.00
43808;DHT22;29438;50.664;10.098;2022-08-23T02:06:32;14.00;81.20
43808;DHT22;29438;50.664;10.098;2022-08-23T02:08:58;13.90;81.30
43808;DHT22;29438;50.664;10.098;2022-08-23T02:11:32;13.90;81.50
43808;DHT22;29438;50.664;10.098;2022-08-23T02:13:59;13.80;81.50
43808;DHT22;29438;50.664;10.098;2022-08-23T02:16:48;13.70;81.90
43808;DHT22;29438;50.664;10.098;2022-08-23T02:19:15;13.70;82.20
43808;DHT22;29438;50.664;10.098;2022-08-23T02:21:41;13.60;82.40
43808;DHT22;29438;50.664;10.098;2022-08-23T02:24:18;13.60;82.40
43808;DHT22;29438;50.664;10.098;2022-08-23T02:26:51;13.60;82.40
43808;DHT22;29438;50.664;10.098;2022-08-23T02:29:19;13.50;82.50
43808;DHT22;29438;50.664;10.098;2022-08-23T02:31:45;13.40;82.50
43808;DHT22;29438;50.664;10.098;2022-08-23T02:34:12;13.40;82.60
43808;DHT22;29438;50.664;10.098;2022-08-23T02:36:39;13.40;82.50
43808;DHT22;29438;50.664;10.098;2022-08-23T02:39:06;13.40;82.70
43808;DHT22;29438;50.664;10.098;2022-08-23T02:41:33;13.20;82.60
43808;DHT22;29438;50.664;10.098;2022-08-23T02:43:58;13.20;82.90
43808;DHT22;29438;50.664;10.098;2022-08-23T02:46:24;13.20;83.10
43808;DHT22;29438;50.664;10.098;2022-08-23T02:48:50;13.20;83.00
43808;DHT22;29438;50.664;10.098;2022-08-23T02:51:17;13.20;83.00
43808;DHT22;29438;50.664;10.098;2022-08-23T02:53:43;13.20;83.10
43808;DHT22;29438;50.664;10.098;2022-08-23T02:56:09;13.20;83.20
43808;DHT22;29438;50.664;10.098;2022-08-23T02:58:36;13.10;83.20
43808;DHT22;29438;50.664;10.098;2022-08-23T03:01:01;13.10;83.50
43808;DHT22;29438;50.664;10.098;2022-08-23T03:03:27;13.10;83.60
43808;DHT22;29438;50.664;10.098;2022-08-23T03:05:53;13.00;83.60
43808;DHT22;29438;50.664;10.098;2022-08-23T03:08:19;13.00;83.60
43808;DHT22;29438;50.664;10.098;2022-08-23T03:10:47;12.90;83.70
43808;DHT22;29438;50.664;10.098;2022-08-23T03:13:13;12.90;83.80
43808;DHT22;29438;50.664;10.098;2022-08-23T03:15:40;12.90;83.90
43808;DHT22;29438;50.664;10.098;2022-08-23T03:18:06;12.80;83.90
43808;DHT22;29438;50.664;10.098;2022-08-23T03:20:32;12.90;84.00
43808;DHT22;29438;50.664;10.098;2022-08-23T03:22:58;12.80;84.00
43808;DHT22;29438;50.664;10.098;2022-08-23T03:25:24;12.80;84.10
43808;DHT22;29438;50.664;10.098;2022-08-23T03:27:50;12.70;84.20
43808;DHT22;29438;50.664;10.098;2022-08-23T03:30:15;12.80;84.30
43808;DHT22;29438;50.664;10.098;2022-08-23T03:32:41;12.80;84.20
43808;DHT22;29438;50.664;10.098;2022-08-23T03:35:07;12.70;84.30
43808;DHT22;29438;50.664;10.098;2022-08-23T03:37:33;12.70;84.50
43808;DHT22;29438;50.664;10.098;2022-08-23T03:39:58;12.70;84.50
43808;DHT22;29438;50.664;10.098;2022-08-23T03:42:24;12.70;84.50
43808;DHT22;29438;50.664;10.098;2022-08-23T03:44:50;12.60;84.60
43808;DHT22;29438;50.664;10.098;2022-08-23T03:47:15;12.60;84.80
43808;DHT22;29438;50.664;10.098;2022-08-23T03:49:41;12.60;84.80
43808;DHT22;29438;50.664;10.098;2022-08-23T03:52:07;12.50;84.90
43808;DHT22;29438;50.664;10.098;2022-08-23T03:54:33;12.50;85.10
43808;DHT22;29438;50.664;10.098;2022-08-23T03:57:02;12.50;85.30
43808;DHT22;29438;50.664;10.098;2022-08-23T03:59:29;12.50;85.30
43808;DHT22;29438;50.664;10.098;2022-08-23T04:01:54;12.50;85.20
43808;DHT22;29438;50.664;10.098;2022-08-23T04:04:20;12.40;85.20
43808;DHT22;29438;50.664;10.098;2022-08-23T04:06:46;12.40;85.30
43808;DHT22;29438;50.664;10.098;2022-08-23T04:09:12;12.40;85.50
43808;DHT22;29438;50.664;10.098;2022-08-23T04:11:38;12.30;85.40
43808;DHT22;29438;50.664;10.098;2022-08-23T04:14:04;12.30;85.30
43808;DHT22;29438;50.664;10.098;2022-08-23T04:16:31;12.30;85.30
43808;DHT22;29438;50.664;10.098;2022-08-23T04:19:06;12.30;85.30
43808;DHT22;29438;50.664;10.098;2022-08-23T04:21:32;12.30;85.20
43808;DHT22;29438;50.664;10.098;2022-08-23T04:23:59;12.40;85.40
43808;DHT22;29438;50.664;10.098;2022-08-23T04:26:25;12.40;85.40
43808;DHT22;29438;50.664;10.098;2022-08-23T04:28:50;12.40;85.40
43808;DHT22;29438;50.664;10.098;2022-08-23T04:31:17;12.40;85.50
43808;DHT22;29438;50.664;10.098;2022-08-23T04:33:43;12.50;85.50
43808;DHT22;29438;50.664;10.098;2022-08-23T04:36:08;12.50;85.40
43808;DHT22;29438;50.664;10.098;2022-08-23T04:38:34;12.50;84.80
43808;DHT22;29438;50.664;10.098;2022-08-23T04:41:00;12.50;84.70
43808;DHT22;29438;50.664;10.098;2022-08-23T04:43:44;12.60;84.90
43808;DHT22;29438;50.664;10.098;2022-08-23T04:46:10;12.70;84.80
43808;DHT22;29438;50.664;10.098;2022-08-23T04:48:36;12.70;84.50
43808;DHT22;29438;50.664;10.098;2022-08-23T04:51:02;13.00;84.50
43808;DHT22;29438;50.664;10.098;2022-08-23T04:53:28;13.20;83.40
43808;DHT22;29438;50.664;10.098;2022-08-23T04:55:55;13.30;83.00
43808;DHT22;29438;50.664;10.098;2022-08-23T04:58:20;13.50;82.60
43808;DHT22;29438;50.664;10.098;2022-08-23T05:00:51;13.60;82.30
43808;DHT22;29438;50.664;10.098;2022-08-23T05:03:17;13.80;82.00
43808;DHT22;29438;50.664;10.098;2022-08-23T05:05:43;13.90;81.70
43808;DHT22;29438;50.664;10.098;2022-08-23T05:08:09;14.00;81.40
43808;DHT22;29438;50.664;10.098;2022-08-23T05:10:34;14.20;81.20
43808;DHT22;29438;50.664;10.098;2022-08-23T05:13:00;14.30;80.90
43808;DHT22;29438;50.664;10.098;2022-08-23T05:15:25;14.40;80.60
43808;DHT22;29438;50.664;10.098;2022-08-23T05:17:51;14.50;80.40
43808;DHT22;29438;50.664;10.098;2022-08-23T05:20:17;14.70;80.20
43808;DHT22;29438;50.664;10.098;2022-08-23T05:22:43;14.80;79.80
43808;DHT22;29438;50.664;10.098;2022-08-23T05:25:09;15.00;79.20
43808;DHT22;29438;50.664;10.098;2022-08-23T05:27:35;15.10;78.80
43808;DHT22;29438;50.664;10.098;2022-08-23T05:30:00;15.20;78.60
43808;DHT22;29438;50.664;10.098;2022-08-23T05:32:27;15.20;78.80
43808;DHT22;29438;50.664;10.098;2022-08-23T05:34:52;15.30;78.70
43808;DHT22;29438;50.664;10.098;2022-08-23T05:37:18;15.40;78.30
43808;DHT22;29438;50.664;10.098;2022-08-23T05:39:43;15.50;77.80
43808;DHT22;29438;50.664;10.098;2022-08-23T05:42:12;15.70;77.30
43808;DHT22;29438;50.664;10.098;2022-08-23T05:44:38;15.90;77.00
43808;DHT22;29438;50.664;10.098;2022-08-23T05:47:07;16.00;76.60
43808;DHT22;29438;50.664;10.098;2022-08-23T05:49:34;16.20;75.90
43808;DHT22;29438;50.664;10.098;2022-08-23T05:52:05;16.30;75.60
43808;DHT22;29438;50.664;10.098;2022-08-23T05:54:32;16.50;75.20
43808;DHT22;29438;50.664;10.098;2022-08-23T05:56:57;16.70;74.20
43808;DHT22;29438;50.664;10.098;2022-08-23T05:59:23;16.80;73.00
43808;DHT22;29438;50.664;10.098;2022-08-23T06:01:48;17.00;72.80
43808;DHT22;29438;50.664;10.098;2022-08-23T06:04:14;17.20;72.30
43808;DHT22;29438;50.664;10.098;2022-08-23T06:06:41;17.40;72.00
43808;DHT22;29438;50.664;10.098;2022-08-23T06:09:10;17.50;70.50
43808;DHT22;29438;50.664;10.098;2022-08-23T06:11:36;17.50;70.80
43808;DHT22;29438;50.664;10.098;2022-08-23T06:14:04;17.50;70.20
43808;DHT22;29438;50.664;10.098;2022-08-23T06:16:39;17.60;71.40
43808;DHT22;29438;50.664;10.098;2022-08-23T06:19:06;17.60;71.00
43808;DHT22;29438;50.664;10.098;2022-08-23T06:21:32;17.60;71.50
43808;DHT22;29438;50.664;10.098;2022-08-23T06:23:58;17.70;71.10
43808;DHT22;29438;50.664;10.098;2022-08-23T06:26:27;17.70;70.40
43808;DHT22;29438;50.664;10.098;2022-08-23T06:28:55;17.90;70.40
43808;DHT22;29438;50.664;10.098;2022-08-23T06:31:22;17.90;69.40
43808;DHT22;29438;50.664;10.098;2022-08-23T06:34:14;18.00;69.60
43808;DHT22;29438;50.664;10.098;2022-08-23T06:36:39;18.20;68.70
43808;DHT22;29438;50.664;10.098;2022-08-23T06:39:08;18.70;67.70
43808;DHT22;29438;50.664;10.098;2022-08-23T06:41:34;19.20;66.10
43808;DHT22;29438;50.664;10.098;2022-08-23T06:44:00;19.20;65.60
43808;DHT22;29438;50.664;10.098;2022-08-23T06:46:28;19.20;65.80
43808;DHT22;29438;50.664;10.098;2022-08-23T06:48:54;19.20;64.60
43808;DHT22;29438;50.664;10.098;2022-08-23T06:51:26;19.20;65.00
43808;DHT22;29438;50.664;10.098;2022-08-23T06:53:52;19.50;65.10
43808;DHT22;29438;50.664;10.098;2022-08-23T06:56:22;19.70;63.10
43808;DHT22;29438;50.664;10.098;2022-08-23T06:58:49;19.80;62.90
43808;DHT22;29438;50.664;10.098;2022-08-23T07:01:17;20.00;62.20
43808;DHT22;29438;50.664;10.098;2022-08-23T07:03:44;19.80;61.70
43808;DHT22;29438;50.664;10.098;2022-08-23T07:06:10;19.70;62.70
43808;DHT22;29438;50.664;10.098;2022-08-23T07:08:35;19.70;62.50
43808;DHT22;29438;50.664;10.098;2022-08-23T07:11:01;19.80;62.20
43808;DHT22;29438;50.664;10.098;2022-08-23T07:13:26;19.80;61.30
43808;DHT22;29438;50.664;10.098;2022-08-23T07:15:57;19.90;60.90
43808;DHT22;29438;50.664;10.098;2022-08-23T07:18:23;20.00;61.40
43808;DHT22;29438;50.664;10.098;2022-08-23T07:20:55;20.20;61.50
43808;DHT22;29438;50.664;10.098;2022-08-23T07:23:20;20.50;61.70
43808;DHT22;29438;50.664;10.098;2022-08-23T07:25:46;20.40;60.20
43808;DHT22;29438;50.664;10.098;2022-08-23T07:28:12;20.40;59.60
43808;DHT22;29438;50.664;10.098;2022-08-23T07:30:38;20.40;60.40
43808;DHT22;29438;50.664;10.098;2022-08-23T07:33:03;20.70;59.80
43808;DHT22;29438;50.664;10.098;2022-08-23T07:35:29;20.70;58.60
43808;DHT22;29438;50.664;10.098;2022-08-23T07:37:56;20.80;58.40
43808;DHT22;29438;50.664;10.098;2022-08-23T07:40:21;21.20;57.60
43808;DHT22;29438;50.664;10.098;2022-08-23T07:42:47;21.50;56.80
43808;DHT22;29438;50.664;10.098;2022-08-23T07:45:12;21.80;55.10
43808;DHT22;29438;50.664;10.098;2022-08-23T07:47:38;22.10;55.60
43808;DHT22;29438;50.664;10.098;2022-08-23T07:50:06;22.40;53.40
43808;DHT22;29438;50.664;10.098;2022-08-23T07:52:32;23.00;52.30
43808;DHT22;29438;50.664;10.098;2022-08-23T07:54:57;23.70;51.10
43808;DHT22;29438;50.664;10.098;2022-08-23T07:57:23;24.30;49.50
43808;DHT22;29438;50.664;10.098;2022-08-23T07:59:49;24.30;47.60
43808;DHT22;29438;50.664;10.098;2022-08-23T08:02:15;24.30;48.10
43808;DHT22;29438;50.664;10.098;2022-08-23T08:04:41;24.10;47.70
43808;DHT22;29438;50.664;10.098;2022-08-23T08:07:06;24.20;47.90
43808;DHT22;29438;50.664;10.098;2022-08-23T08:09:32;24.20;49.50
43808;DHT22;29438;50.664;10.098;2022-08-23T08:11:57;24.60;48.20
43808;DHT22;29438;50.664;10.098;2022-08-23T08:14:23;24.50;46.50
43808;DHT22;29438;50.664;10.098;2022-08-23T08:16:49;24.20;45.90
43808;DHT22;29438;50.664;10.098;2022-08-23T08:19:16;23.90;47.30
43808;DHT22;29438;50.664;10.098;2022-08-23T08:21:42;23.90;47.90
43808;DHT22;29438;50.664;10.098;2022-08-23T08:24:11;23.90;46.60
43808;DHT22;29438;50.664;10.098;2022-08-23T08:26:37;24.60;45.90
43808;DHT22;29438;50.664;10.098;2022-08-23T08:29:03;26.90;42.10
43808;DHT22;29438;50.664;10.098;2022-08-23T08:31:29;29.20;37.20
43808;DHT22;29438;50.664;10.098;2022-08-23T08:33:55;30.20;34.60
43808;DHT22;29438;50.664;10.098;2022-08-23T08:39:03;31.90;32.00
43808;DHT22;29438;50.664;10.098;2022-08-23T08:46:56;30.80;33.40
43808;DHT22;29438;50.664;10.098;2022-08-23T08:50:06;31.70;31.90
43808;DHT22;29438;50.664;10.098;2022-08-23T08:52:26;31.40;32.00
43808;DHT22;29438;50.664;10.098;2022-08-23T08:55:03;31.40;31.00
43808;DHT22;29438;50.664;10.098;2022-08-23T08:57:32;31.50;31.80
43808;DHT22;29438;50.664;10.098;2022-08-23T09:00:07;31.90;31.60
43808;DHT22;29438;50.664;10.098;2022-08-23T09:02:36;32.20;29.90
43808;DHT22;29438;50.664;10.098;2022-08-23T09:05:06;30.50;33.30
43808;DHT22;29438;50.664;10.098;2022-08-23T09:07:56;28.50;35.20
43808;DHT22;29438;50.664;10.098;2022-08-23T09:13:26;28.80;36.20
43808;DHT22;29438;50.664;10.098;2022-08-23T09:18:39;27.60;36.80
43808;DHT22;29438;50.664;10.098;2022-08-23T09:21:07;27.10;37.60
43808;DHT22;29438;50.664;10.098;2022-08-23T09:23:39;27.50;37.70
43808;DHT22;29438;50.664;10.098;2022-08-23T09:28:41;27.40;37.70
43808;DHT22;29438;50.664;10.098;2022-08-23T09:31:07;28.70;36.40
43808;DHT22;29438;50.664;10.098;2022-08-23T09:33:42;29.50;34.60
43808;DHT22;29438;50.664;10.098;2022-08-23T09:36:15;29.40;34.80
43808;DHT22;29438;50.664;10.098;2022-08-23T09:38:59;28.60;35.20
43808;DHT22;29438;50.664;10.098;2022-08-23T09:41:34;28.90;36.60
43808;DHT22;29438;50.664;10.098;2022-08-23T09:44:09;29.40;34.30
43808;DHT22;29438;50.664;10.098;2022-08-23T09:46:38;29.40;35.60
43808;DHT22;29438;50.664;10.098;2022-08-23T09:49:27;29.80;34.40
43808;DHT22;29438;50.664;10.098;2022-08-23T09:51:57;30.10;33.80
43808;DHT22;29438;50.664;10.098;2022-08-23T09:54:31;29.70;34.20
43808;DHT22;29438;50.664;10.098;2022-08-23T09:57:00;29.30;33.60
43808;DHT22;29438;50.664;10.098;2022-08-23T09:59:34;28.20;34.10
43808;DHT22;29438;50.664;10.098;2022-08-23T10:02:02;28.50;34.20
43808;DHT22;29438;50.664;10.098;2022-08-23T10:04:42;27.80;34.70
43808;DHT22;29438;50.664;10.098;2022-08-23T10:07:33;27.20;35.90
43808;DHT22;29438;50.664;10.098;2022-08-23T10:12:38;27.10;35.70
43808;DHT22;29438;50.664;10.098;2022-08-23T10:15:04;26.70;36.70
43808;DHT22;29438;50.664;10.098;2022-08-23T10:17:39;26.90;36.30
43808;DHT22;29438;50.664;10.098;2022-08-23T10:20:43;26.80;37.10
43808;DHT22;29438;50.664;10.098;2022-08-23T10:25:57;27.10;36.00
43808;DHT22;29438;50.664;10.098;2022-08-23T10:31:57;27.80;34.30
43808;DHT22;29438;50.664;10.098;2022-08-23T10:39:47;27.40;36.10
43808;DHT22;29438;50.664;10.098;2022-08-23T10:42:35;27.20;34.90
43808;DHT22;29438;50.664;10.098;2022-08-23T10:50:47;28.00;33.70
43808;DHT22;29438;50.664;10.098;2022-08-23T10:53:15;28.10;33.80
43808;DHT22;29438;50.664;10.098;2022-08-23T10:56:07;28.70;33.20
43808;DHT22;29438;50.664;10.098;2022-08-23T11:04:06;28.60;34.20
43808;DHT22;29438;50.664;10.098;2022-08-23T11:06:44;29.10;32.90
43808;DHT22;29438;50.664;10.098;2022-08-23T11:09:30;29.40;32.10
43808;DHT22;29438;50.664;10.098;2022-08-23T11:12:23;29.20;32.50
43808;DHT22;29438;50.664;10.098;2022-08-23T11:25:42;28.90;32.80
43808;DHT22;29438;50.664;10.098;2022-08-23T11:32:01;29.40;32.20
43808;DHT22;29438;50.664;10.098;2022-08-23T11:34:20;28.90;32.20
43808;DHT22;29438;50.664;10.098;2022-08-23T11:37:25;28.60;32.90
43808;DHT22;29438;50.664;10.098;2022-08-23T11:42:50;28.20;33.20
43808;DHT22;29438;50.664;10.098;2022-08-23T11:56:13;28.90;32.10
43808;DHT22;29438;50.664;10.098;2022-08-23T12:01:34;27.90;32.70
43808;DHT22;29438;50.664;10.098;2022-08-23T12:04:07;28.10;32.70
43808;DHT22;29438;50.664;10.098;2022-08-23T12:06:52;28.30;33.10
43808;DHT22;29438;50.664;10.098;2022-08-23T12:22:52;28.10;33.00
43808;DHT22;29438;50.664;10.098;2022-08-23T12:25:21;28.30;32.40
43808;DHT22;29438;50.664;10.098;2022-08-23T12:28:05;28.40;32.50
43808;DHT22;29438;50.664;10.098;2022-08-23T12:30:53;28.10;32.90
43808;DHT22;29438;50.664;10.098;2022-08-23T12:33:30;27.80;33.10
43808;DHT22;29438;50.664;10.098;2022-08-23T12:36:29;27.90;33.30
43808;DHT22;29438;50.664;10.098;2022-08-23T12:39:05;28.10;33.70
43808;DHT22;29438;50.664;10.098;2022-08-23T12:42:12;28.20;32.80
43808;DHT22;29438;50.664;10.098;2022-08-23T12:44:42;27.80;33.70
43808;DHT22;29438;50.664;10.098;2022-08-23T12:47:14;28.20;33.70
43808;DHT22;29438;50.664;10.098;2022-08-23T12:49:40;28.10;34.50
43808;DHT22;29438;50.664;10.098;2022-08-23T12:52:09;28.30;33.50
43808;DHT22;29438;50.664;10.098;2022-08-23T12:54:43;28.50;32.10
43808;DHT22;29438;50.664;10.098;2022-08-23T12:57:15;28.30;33.10
43808;DHT22;29438;50.664;10.098;2022-08-23T12:59:50;28.70;33.20
43808;DHT22;29438;50.664;10.098;2022-08-23T13:02:28;28.90;32.80
43808;DHT22;29438;50.664;10.098;2022-08-23T13:05:02;28.50;32.20
43808;DHT22;29438;50.664;10.098;2022-08-23T13:07:29;28.10;32.50
43808;DHT22;29438;50.664;10.098;2022-08-23T13:09:55;28.20;32.40
43808;DHT22;29438;50.664;10.098;2022-08-23T13:12:21;28.20;32.40
43808;DHT22;29438;50.664;10.098;2022-08-23T13:14:52;28.60;31.60
43808;DHT22;29438;50.664;10.098;2022-08-23T13:20:15;28.80;31.80
43808;DHT22;29438;50.664;10.098;2022-08-23T13:22:52;28.90;32.10
43808;DHT22;29438;50.664;10.098;2022-08-23T13:25:28;28.60;31.60
43808;DHT22;29438;50.664;10.098;2022-08-23T13:27:57;28.50;31.40
43808;DHT22;29438;50.664;10.098;2022-08-23T13:30:26;28.70;31.80
43808;DHT22;29438;50.664;10.098;2022-08-23T13:35:44;28.00;31.80
43808;DHT22;29438;50.664;10.098;2022-08-23T13:40:51;28.30;32.50
43808;DHT22;29438;50.664;10.098;2022-08-23T13:43:45;28.00;31.40
43808;DHT22;29438;50.664;10.098;2022-08-23T13:46:23;28.10;31.50
43808;DHT22;29438;50.664;10.098;2022-08-23T13:49:11;28.30;31.90
43808;DHT22;29438;50.664;10.098;2022-08-23T13:52:05;28.10;32.40
43808;DHT22;29438;50.664;10.098;2022-08-23T13:54:32;28.30;31.50
43808;DHT22;29438;50.664;10.098;2022-08-23T13:57:12;28.40;31.10
43808;DHT22;29438;50.664;10.098;2022-08-23T13:59:53;28.60;31.50
43808;DHT22;29438;50.664;10.098;2022-08-23T14:02:21;27.90;32.20
43808;DHT22;29438;50.664;10.098;2022-08-23T14:04:47;27.40;33.10
43808;DHT22;29438;50.664;10.098;2022-08-23T14:07:14;27.40;33.00
43808;DHT22;29438;50.664;10.098;2022-08-23T14:09:39;27.60;32.50
43808;DHT22;29438;50.664;10.098;2022-08-23T14:12:10;27.60;32.80
43808;DHT22;29438;50.664;10.098;2022-08-23T14:14:37;27.60;32.20
43808;DHT22;29438;50.664;10.098;2022-08-23T14:17:03;27.60;33.00
43808;DHT22;29438;50.664;10.098;2022-08-23T14:19:29;27.70;33.20
43808;DHT22;29438;50.664;10.098;2022-08-23T14:21:58;27.80;32.20
43808;DHT22;29438;50.664;10.098;2022-08-23T14:24:25;27.50;32.30
43808;DHT22;29438;50.664;10.098;2022-08-23T14:26:51;27.40;33.20
43808;DHT22;29438;50.664;10.098;2022-08-23T14:29:17;27.50;33.00
43808;DHT22;29438;50.664;10.098;2022-08-23T14:31:43;27.40;33.30
43808;DHT22;29438;50.664;10.098;2022-08-23T14:34:09;27.30;33.30
43808;DHT22;29438;50.664;10.098;2022-08-23T14:36:35;27.20;33.60
43808;DHT22;29438;50.664;10.098;2022-08-23T14:39:00;27.30;34.10
43808;DHT22;29438;50.664;10.098;2022-08-23T14:41:27;27.30;33.70
43808;DHT22;29438;50.664;10.098;2022-08-23T14:43:53;27.40;33.90
43808;DHT22;29438;50.664;10.098;2022-08-23T14:46:20;27.50;34.00
43808;DHT22;29438;50.664;10.098;2022-08-23T14:48:46;27.60;33.70
43808;DHT22;29438;50.664;10.098;2022-08-23T14:51:27;27.60;34.40
43808;DHT22;29438;50.664;10.098;2022-08-23T14:53:54;27.70;33.60
43808;DHT22;29438;50.664;10.098;2022-08-23T14:56:20;27.60;33.40
43808;DHT22;29438;50.664;10.098;2022-08-23T14:58:47;27.30;33.20
43808;DHT22;29438;50.664;10.098;2022-08-23T15:01:13;27.20;33.80
43808;DHT22;29438;50.664;10.098;2022-08-23T15:03:40;27.20;33.50
43808;DHT22;29438;50.664;10.098;2022-08-23T15:06:07;27.40;34.20
43808;DHT22;29438;50.664;10.098;2022-08-23T15:08:33;27.60;33.80
43808;DHT22;29438;50.664;10.098;2022-08-23T15:10:58;27.60;33.60
43808;DHT22;29438;50.664;10.098;2022-08-23T15:13:24;27.50;33.50
43808;DHT22;29438;50.664;10.098;2022-08-23T15:15:51;27.40;33.40
43808;DHT22;29438;50.664;10.098;2022-08-23T15:18:17;27.30;33.70
43808;DHT22;29438;50.664;10.098;2022-08-23T15:20:43;27.20;33.10
43808;DHT22;29438;50.664;10.098;2022-08-23T15:23:10;27.20;33.60
43808;DHT22;29438;50.664;10.098;2022-08-23T15:25:38;27.10;34.40
43808;DHT22;29438;50.664;10.098;2022-08-23T15:28:06;27.10;33.70
43808;DHT22;29438;50.664;10.098;2022-08-23T15:30:32;27.20;33.90
43808;DHT22;29438;50.664;10.098;2022-08-23T15:32:58;27.20;33.80
43808;DHT22;29438;50.664;10.098;2022-08-23T15:35:25;27.30;34.60
43808;DHT22;29438;50.664;10.098;2022-08-23T15:37:51;27.10;34.20
43808;DHT22;29438;50.664;10.098;2022-08-23T15:40:17;27.00;34.00
43808;DHT22;29438;50.664;10.098;2022-08-23T15:42:43;26.90;34.70
43808;DHT22;29438;50.664;10.098;2022-08-23T15:45:09;26.70;34.10
43808;DHT22;29438;50.664;10.098;2022-08-23T15:47:52;26.80;34.90
43808;DHT22;29438;50.664;10.098;2022-08-23T15:50:20;26.70;34.30
43808;DHT22;29438;50.664;10.098;2022-08-23T15:52:47;26.70;34.80
43808;DHT22;29438;50.664;10.098;2022-08-23T15:55:13;26.60;34.90
43808;DHT22;29438;50.664;10.098;2022-08-23T15:57:45;26.60;35.50
43808;DHT22;29438;50.664;10.098;2022-08-23T16:00:13;26.70;35.30
43808;DHT22;29438;50.664;10.098;2022-08-23T16:02:39;26.60;34.40
43808;DHT22;29438;50.664;10.098;2022-08-23T16:05:05;26.50;35.00
43808;DHT22;29438;50.664;10.098;2022-08-23T16:07:31;26.40;35.00
43808;DHT22;29438;50.664;10.098;2022-08-23T16:09:58;26.50;35.50
43808;DHT22;29438;50.664;10.098;2022-08-23T16:12:26;26.40;34.80
43808;DHT22;29438;50.664;10.098;2022-08-23T16:14:51;26.30;34.70
43808;DHT22;29438;50.664;10.098;2022-08-23T16:17:18;26.50;34.80
43808;DHT22;29438;50.664;10.098;2022-08-23T16:19:45;26.40;34.70
43808;DHT22;29438;50.664;10.098;2022-08-23T16:22:10;26.30;35.00
43808;DHT22;29438;50.664;10.098;2022-08-23T16:24:36;26.30;34.90
43808;DHT22;29438;50.664;10.098;2022-08-23T16:27:04;26.30;35.10
43808;DHT22;29438;50.664;10.098;2022-08-23T16:29:30;26.20;35.00
43808;DHT22;29438;50.664;10.098;2022-08-23T16:31:59;26.20;35.20
43808;DHT22;29438;50.664;10.098;2022-08-23T16:34:24;26.20;35.10
43808;DHT22;29438;50.664;10.098;2022-08-23T16:36:55;26.20;35.90
43808;DHT22;29438;50.664;10.098;2022-08-23T16:39:21;26.20;35.60
43808;DHT22;29438;50.664;10.098;2022-08-23T16:41:47;26.20;35.70
43808;DHT22;29438;50.664;10.098;2022-08-23T16:44:12;26.10;36.30
43808;DHT22;29438;50.664;10.098;2022-08-23T16:46:38;25.90;36.20
43808;DHT22;29438;50.664;10.098;2022-08-23T16:49:07;25.90;36.80
43808;DHT22;29438;50.664;10.098;2022-08-23T16:51:33;26.10;37.50
43808;DHT22;29438;50.664;10.098;2022-08-23T16:53:58;26.20;36.80
43808;DHT22;29438;50.664;10.098;2022-08-23T16:56:24;26.20;36.50
43808;DHT22;29438;50.664;10.098;2022-08-23T16:58:49;26.00;36.80
43808;DHT22;29438;50.664;10.098;2022-08-23T17:01:16;26.00;37.10
43808;DHT22;29438;50.664;10.098;2022-08-23T17:03:44;25.90;37.40
43808;DHT22;29438;50.664;10.098;2022-08-23T17:06:10;25.90;37.30